KJXN/JXN METAR and TAF weather

Enter ICAO airport designator
Station Type Date Time Source
KJXN METAR 2024/05/28 21:56 UTC NOAA

KJXN 282156Z 22006KT 10SM FEW065 BKN080 OVC100 14/13 A2995 RMK AO2 LTG DSNT N AND NW RAE40 SLP144 T01440128 $


Station Type Date Time Source
KJXN Decoded METAR 2024/05/28 21:56 UTC NOAA

JACKSON COUNTY-REYNOLDS, MI, United States (KJXN) 42-16N 084-28W
May 28, 2024 - 05:56 PM EDT / 2024.05.28 2156 UTC
Wind: from the SW (220 degrees) at 7 MPH (6 KT):0
Visibility: 10 mile(s):0
Sky conditions: overcast
Weather: Lightning observed
Temperature: 57.9 F (14.4 C)
Dew Point: 55.0 F (12.8 C)
Relative Humidity: 90%
Pressure (altimeter): 29.95 in. Hg (1014 hPa)
ob: KJXN 282156Z 22006KT 10SM FEW065 BKN080 OVC100 14/13 A2995 RMK AO2 LTG DSNT N AND NW RAE40 SLP144 T01440128
cycle: 22

Station Type Date Time Source
KJXN TAF 2024/05/28 19:51 UTC NOAA